createdAt,value
2022-09-13T00:01:09.824Z,2.80
2022-09-13T00:03:37.694Z,2.70
2022-09-13T00:06:09.940Z,2.70
2022-09-13T00:08:37.632Z,2.27
2022-09-13T00:11:05.574Z,2.50
2022-09-13T00:13:33.368Z,2.50
2022-09-13T00:16:02.817Z,2.37
2022-09-13T00:18:32.032Z,2.43
2022-09-13T00:21:07.493Z,2.57
2022-09-13T00:23:35.459Z,2.37
2022-09-13T00:26:08.563Z,2.83
2022-09-13T00:28:36.455Z,2.67
2022-09-13T00:31:06.345Z,3.13
2022-09-13T00:33:36.051Z,2.50
2022-09-13T00:36:06.107Z,2.57
2022-09-13T00:38:36.341Z,3.10
2022-09-13T00:41:04.566Z,2.70
2022-09-13T00:43:50.057Z,2.90
2022-09-13T00:46:33.195Z,2.33
2022-09-13T00:49:12.622Z,2.60
2022-09-13T00:51:43.304Z,2.93
2022-09-13T00:54:12.009Z,2.37
2022-09-13T00:56:44.872Z,2.90
2022-09-13T00:59:20.703Z,2.90
2022-09-13T01:01:51.098Z,3.73
2022-09-13T01:04:21.994Z,3.20
2022-09-13T01:06:53.159Z,3.80
2022-09-13T01:09:21.004Z,4.17
2022-09-13T01:11:55.698Z,3.67
2022-09-13T01:14:25.058Z,3.70
2022-09-13T01:16:54.333Z,3.93
2022-09-13T01:19:23.526Z,4.63
2022-09-13T01:22:12.798Z,4.10
2022-09-13T01:25:11.041Z,4.03
2022-09-13T01:27:54.742Z,4.37
2022-09-13T01:30:24.547Z,4.07
2022-09-13T01:33:22.756Z,3.97
2022-09-13T01:36:05.950Z,3.60
2022-09-13T01:38:46.637Z,3.60
2022-09-13T01:41:29.198Z,4.07
2022-09-13T01:44:03.935Z,3.97
2022-09-13T01:46:40.190Z,3.50
2022-09-13T01:49:18.928Z,3.60
2022-09-13T01:51:50.405Z,3.70
2022-09-13T01:54:22.875Z,3.87
2022-09-13T01:56:59.662Z,3.87
2022-09-13T01:59:38.199Z,3.60
2022-09-13T02:02:12.477Z,3.43
2022-09-13T02:04:44.262Z,3.47
2022-09-13T02:07:17.335Z,3.70
2022-09-13T02:09:51.503Z,4.00
2022-09-13T02:12:22.614Z,3.90
2022-09-13T02:15:07.995Z,4.37
2022-09-13T02:17:39.903Z,4.57
2022-09-13T02:20:13.551Z,4.60
2022-09-13T02:22:49.722Z,4.40
2022-09-13T02:25:21.604Z,3.83
2022-09-13T02:27:52.567Z,3.83
2022-09-13T02:30:20.973Z,3.70
2022-09-13T02:32:55.016Z,3.90
2022-09-13T02:35:27.457Z,4.10
2022-09-13T02:38:02.227Z,4.07
2022-09-13T02:40:36.799Z,4.23
2022-09-13T02:43:09.724Z,3.60
2022-09-13T02:45:44.793Z,3.73
2022-09-13T02:48:24.796Z,3.50
2022-09-13T02:51:01.086Z,3.83
2022-09-13T02:53:37.740Z,3.93
2022-09-13T02:56:15.811Z,3.70
2022-09-13T02:58:47.895Z,3.80
2022-09-13T03:01:16.215Z,3.73
2022-09-13T03:03:45.586Z,3.50
2022-09-13T03:06:13.285Z,3.63
2022-09-13T03:08:41.037Z,3.20
2022-09-13T03:11:13.979Z,3.80
2022-09-13T03:14:00.010Z,3.43
2022-09-13T03:16:44.196Z,3.60
2022-09-13T03:19:40.262Z,3.53
2022-09-13T03:22:22.564Z,3.90
2022-09-13T03:24:59.345Z,3.60
2022-09-13T03:27:35.275Z,3.43
2022-09-13T03:30:07.106Z,3.20
2022-09-13T03:32:42.198Z,3.43
2022-09-13T03:35:20.261Z,3.23
2022-09-13T03:37:56.714Z,3.60
2022-09-13T03:40:36.743Z,3.70
2022-09-13T03:43:09.618Z,3.63
2022-09-13T03:45:42.252Z,3.00
2022-09-13T03:48:12.169Z,3.47
2022-09-13T03:50:41.858Z,2.97
2022-09-13T03:53:12.371Z,3.50
2022-09-13T03:55:42.431Z,3.10
2022-09-13T03:58:13.391Z,3.47
2022-09-13T04:00:41.512Z,3.37
2022-09-13T04:03:10.064Z,3.33
2022-09-13T04:05:37.915Z,3.23
2022-09-13T04:08:08.501Z,3.07
2022-09-13T04:10:37.852Z,3.20
2022-09-13T04:13:06.184Z,3.93
2022-09-13T04:15:33.833Z,4.43
2022-09-13T04:18:02.020Z,3.97
2022-09-13T04:20:29.856Z,3.90
2022-09-13T04:22:58.495Z,3.70
2022-09-13T04:25:27.567Z,4.13
2022-09-13T04:27:56.098Z,4.13
2022-09-13T04:30:24.080Z,4.30
2022-09-13T04:32:52.325Z,4.30
2022-09-13T04:35:21.648Z,4.30
2022-09-13T04:37:51.969Z,4.37
2022-09-13T04:40:22.070Z,4.37
2022-09-13T04:42:54.290Z,4.60
2022-09-13T04:45:25.385Z,4.43
2022-09-13T04:47:57.618Z,5.10
2022-09-13T04:50:27.355Z,4.63
2022-09-13T04:52:58.301Z,4.43
2022-09-13T04:55:28.145Z,5.00
2022-09-13T04:58:00.860Z,5.00
2022-09-13T05:00:32.432Z,4.83
2022-09-13T05:03:00.562Z,4.90
2022-09-13T05:05:33.233Z,4.40
2022-09-13T05:08:04.168Z,4.73
2022-09-13T05:10:33.299Z,4.47
2022-09-13T05:13:04.740Z,5.03
2022-09-13T05:15:32.528Z,4.77
2022-09-13T05:18:00.296Z,4.87
2022-09-13T05:20:28.043Z,5.33
2022-09-13T05:22:56.914Z,4.80
2022-09-13T05:25:26.174Z,4.80
2022-09-13T05:27:54.098Z,5.17
2022-09-13T05:30:23.205Z,5.03
2022-09-13T05:32:51.197Z,5.00
2022-09-13T05:35:19.111Z,5.40
2022-09-13T05:37:46.960Z,4.50
2022-09-13T05:40:17.602Z,4.87
2022-09-13T05:42:45.930Z,5.27
2022-09-13T05:45:13.964Z,5.30
2022-09-13T05:47:44.875Z,4.80
2022-09-13T05:50:26.565Z,5.40
2022-09-13T05:53:00.499Z,5.10
2022-09-13T05:55:28.374Z,5.10
2022-09-13T05:57:57.588Z,4.93
2022-09-13T06:00:25.612Z,5.13
2022-09-13T06:02:54.790Z,4.70
2022-09-13T06:05:22.493Z,4.90
2022-09-13T06:07:50.281Z,5.17
2022-09-13T06:10:18.094Z,5.47
2022-09-13T06:12:46.204Z,4.73
2022-09-13T06:15:14.557Z,5.13
2022-09-13T06:17:42.267Z,4.57
2022-09-13T06:20:11.805Z,5.33
2022-09-13T06:22:39.475Z,4.70
2022-09-13T06:25:07.891Z,5.00
2022-09-13T06:27:35.732Z,5.20
2022-09-13T06:30:03.499Z,5.87
2022-09-13T06:32:31.136Z,6.17
2022-09-13T06:34:58.862Z,6.40
2022-09-13T06:37:28.181Z,6.43
2022-09-13T06:39:55.914Z,6.13
2022-09-13T06:42:23.646Z,6.00
2022-09-13T06:44:51.269Z,6.23
2022-09-13T06:47:19.005Z,5.27
2022-09-13T06:49:46.669Z,5.70
2022-09-13T06:52:14.613Z,5.93
2022-09-13T06:54:43.630Z,5.30
2022-09-13T06:57:11.568Z,4.97
2022-09-13T06:59:39.236Z,5.07
2022-09-13T07:02:06.956Z,4.67
2022-09-13T07:04:34.645Z,5.07
2022-09-13T07:07:02.457Z,4.67
2022-09-13T07:09:30.317Z,4.87
2022-09-13T07:11:59.339Z,3.67
2022-09-13T07:14:28.834Z,3.70
2022-09-13T07:16:56.891Z,3.37
2022-09-13T07:19:26.425Z,3.03
2022-09-13T07:21:54.802Z,2.13
2022-09-13T07:24:23.254Z,2.23
2022-09-13T07:26:51.379Z,2.47
2022-09-13T07:29:24.034Z,2.33
2022-09-13T07:31:53.348Z,2.10
2022-09-13T07:34:23.488Z,1.93
2022-09-13T07:36:52.452Z,1.90
2022-09-13T07:39:22.959Z,2.23
2022-09-13T07:41:51.616Z,2.10
2022-09-13T07:44:21.083Z,1.97
2022-09-13T07:46:48.735Z,2.23
2022-09-13T07:49:20.960Z,2.30
2022-09-13T07:51:51.407Z,1.93
2022-09-13T07:54:20.577Z,1.40
2022-09-13T07:56:50.163Z,1.70
2022-09-13T07:59:18.962Z,1.17
2022-09-13T08:01:49.462Z,1.40
2022-09-13T08:04:18.985Z,1.17
2022-09-13T08:06:47.141Z,1.30
2022-09-13T08:09:15.831Z,1.10
2022-09-13T08:11:45.213Z,1.30
2022-09-13T08:14:14.341Z,1.50
2022-09-13T08:16:42.720Z,1.20
2022-09-13T08:19:15.037Z,1.20
2022-09-13T08:21:43.652Z,1.37
2022-09-13T08:24:16.065Z,1.20
2022-09-13T08:26:44.095Z,1.27
2022-09-13T08:29:12.715Z,1.30
2022-09-13T08:31:40.436Z,1.27
2022-09-13T08:34:12.645Z,1.70
2022-09-13T08:36:42.123Z,1.30
2022-09-13T08:39:10.777Z,1.30
2022-09-13T08:42:06.139Z,1.20
2022-09-13T08:44:36.978Z,1.30
2022-09-13T08:47:20.637Z,1.65
2022-09-13T08:49:51.860Z,1.40
2022-09-13T08:52:30.581Z,1.23
2022-09-13T08:54:58.923Z,1.10
2022-09-13T08:57:33.688Z,1.02
2022-09-13T09:00:07.876Z,1.27
2022-09-13T09:02:53.895Z,0.97
2022-09-13T09:05:23.137Z,1.10
2022-09-13T09:07:56.124Z,1.10
2022-09-13T09:10:29.000Z,1.00
2022-09-13T09:13:00.613Z,0.87
2022-09-13T09:15:35.914Z,0.90
2022-09-13T09:18:08.550Z,0.80
2022-09-13T09:20:40.839Z,0.82
2022-09-13T09:23:21.210Z,0.63
2022-09-13T09:25:52.407Z,0.82
2022-09-13T09:28:20.609Z,0.95
2022-09-13T09:30:58.089Z,0.88
2022-09-13T09:33:40.637Z,0.70
2022-09-13T09:36:15.351Z,0.70
2022-09-13T09:38:45.119Z,0.63
2022-09-13T09:41:22.712Z,0.77
2022-09-13T09:43:56.282Z,0.75
2022-09-13T09:46:29.940Z,0.75
2022-09-13T09:49:03.683Z,0.53
2022-09-13T09:51:32.858Z,0.63
2022-09-13T09:54:06.344Z,0.70
2022-09-13T09:56:36.324Z,0.60
2022-09-13T09:59:04.559Z,0.82
2022-09-13T10:01:34.067Z,0.70
2022-09-13T10:04:09.419Z,0.82
2022-09-13T10:06:39.200Z,0.77
2022-09-13T10:09:19.447Z,0.80
2022-09-13T10:11:50.357Z,0.60
2022-09-13T10:14:31.771Z,1.05
2022-09-13T10:17:18.474Z,0.77
2022-09-13T10:19:55.205Z,0.70
2022-09-13T10:22:23.527Z,0.50
2022-09-13T10:24:53.607Z,0.77
2022-09-13T10:27:25.715Z,0.50
2022-09-13T10:29:59.563Z,0.52
2022-09-13T10:32:28.161Z,0.77
2022-09-13T10:34:58.592Z,0.68
2022-09-13T10:37:31.425Z,0.90
2022-09-13T10:40:07.074Z,0.52
2022-09-13T10:42:35.651Z,0.63
2022-09-13T10:45:05.956Z,0.77
2022-09-13T10:47:38.825Z,0.80
2022-09-13T10:50:19.773Z,0.60
2022-09-13T10:52:49.363Z,0.70
2022-09-13T10:55:32.191Z,0.90
2022-09-13T10:58:19.272Z,0.70
2022-09-13T11:01:18.104Z,0.80
2022-09-13T11:04:11.291Z,0.77
2022-09-13T11:06:43.625Z,0.90
2022-09-13T11:09:18.464Z,0.97
2022-09-13T11:11:59.121Z,0.80
2022-09-13T11:14:38.860Z,0.80
2022-09-13T11:17:18.455Z,0.93
2022-09-13T11:20:18.072Z,0.80
2022-09-13T11:23:12.303Z,0.80
2022-09-13T11:25:52.469Z,1.35
2022-09-13T11:28:31.192Z,0.93
2022-09-13T11:31:18.189Z,1.00
2022-09-13T11:33:58.037Z,1.00
2022-09-13T11:36:51.141Z,0.88
2022-09-13T11:39:31.999Z,1.20
2022-09-13T11:42:12.925Z,1.05
2022-09-13T11:45:20.730Z,0.80
2022-09-13T11:48:16.206Z,0.80
2022-09-13T11:50:53.894Z,0.70
2022-09-13T11:53:50.206Z,0.88
2022-09-13T11:56:23.897Z,0.80
2022-09-13T11:58:54.261Z,0.70
2022-09-13T12:01:28.915Z,0.60
2022-09-13T12:04:03.834Z,0.70
2022-09-13T12:06:35.054Z,0.80
2022-09-13T12:09:09.009Z,0.60
2022-09-13T12:11:39.948Z,0.68
2022-09-13T12:14:13.148Z,0.60
2022-09-13T12:16:45.859Z,0.50
2022-09-13T12:19:19.290Z,0.70
2022-09-13T12:21:50.029Z,0.70
2022-09-13T12:24:22.407Z,0.57
2022-09-13T12:26:56.791Z,0.70
2022-09-13T12:29:29.500Z,0.50
2022-09-13T12:32:03.469Z,0.80
2022-09-13T12:34:45.867Z,0.68
2022-09-13T12:37:34.610Z,0.68
2022-09-13T12:40:23.539Z,0.80
2022-09-13T12:43:22.522Z,0.50
2022-09-13T12:46:12.649Z,1.27
2022-09-13T12:49:00.197Z,1.00
2022-09-13T12:51:41.856Z,1.50
2022-09-13T12:54:41.146Z,1.20
2022-09-13T12:57:23.786Z,0.90
2022-09-13T13:00:03.672Z,0.82
2022-09-13T13:02:35.982Z,0.70
2022-09-13T13:05:16.985Z,0.70
2022-09-13T13:07:53.562Z,0.50
2022-09-13T13:10:28.150Z,0.65
2022-09-13T13:12:55.836Z,0.50
2022-09-13T13:15:57.468Z,0.60
2022-09-13T13:18:28.634Z,0.75
2022-09-13T13:21:24.270Z,0.50
2022-09-13T13:24:25.475Z,0.63
2022-09-13T13:26:55.470Z,0.60
2022-09-13T13:29:24.594Z,0.50
2022-09-13T13:32:13.506Z,0.77
2022-09-13T13:34:49.058Z,0.43
2022-09-13T13:37:38.155Z,0.50
2022-09-13T13:40:26.844Z,0.63
2022-09-13T13:43:17.805Z,0.60
2022-09-13T13:45:58.613Z,0.80
2022-09-13T13:48:39.013Z,0.50
2022-09-13T13:51:24.513Z,0.60
2022-09-13T13:54:00.725Z,0.50
2022-09-13T13:56:34.215Z,0.50
2022-09-13T13:59:07.624Z,0.80
2022-09-13T14:01:40.020Z,0.60
2022-09-13T14:04:44.556Z,0.52
2022-09-13T14:07:29.322Z,0.50
2022-09-13T14:10:08.165Z,0.60
2022-09-13T14:12:53.621Z,0.60
2022-09-13T14:15:39.500Z,0.40
2022-09-13T14:18:34.874Z,0.60
2022-09-13T14:21:05.327Z,0.40
2022-09-13T14:23:33.480Z,0.43
2022-09-13T14:26:03.202Z,0.60
2022-09-13T14:28:33.251Z,0.55
2022-09-13T14:31:00.996Z,0.40
2022-09-13T14:33:35.162Z,0.52
2022-09-13T14:36:06.458Z,0.63
2022-09-13T14:38:35.848Z,0.77
2022-09-13T14:41:15.223Z,0.60
2022-09-13T14:43:43.856Z,0.60
2022-09-13T14:46:15.992Z,0.70
2022-09-13T14:48:51.499Z,0.57
2022-09-13T14:51:24.326Z,0.50
2022-09-13T14:53:55.259Z,0.50
2022-09-13T14:56:32.364Z,0.52
2022-09-13T14:59:02.564Z,0.50
2022-09-13T15:01:33.057Z,0.60
2022-09-13T15:04:03.014Z,0.50
2022-09-13T15:06:33.093Z,0.80
2022-09-13T15:09:14.826Z,0.52
2022-09-13T15:11:57.675Z,0.40
2022-09-13T15:14:31.149Z,0.60
2022-09-13T15:17:09.085Z,0.40
2022-09-13T15:19:39.559Z,0.57
2022-09-13T15:22:15.220Z,0.50
2022-09-13T15:24:48.678Z,0.55
2022-09-13T15:27:26.120Z,0.70
2022-09-13T15:29:55.817Z,0.40
2022-09-13T15:32:29.884Z,0.50
2022-09-13T15:34:59.034Z,0.43
2022-09-13T15:37:33.335Z,0.43
2022-09-13T15:40:15.507Z,0.57
2022-09-13T15:42:48.520Z,0.50
2022-09-13T15:45:17.072Z,0.50
2022-09-13T15:47:47.835Z,0.60
2022-09-13T15:50:26.681Z,0.50
2022-09-13T15:52:55.145Z,0.40
2022-09-13T15:55:23.613Z,1.00
2022-09-13T15:57:53.203Z,0.60
2022-09-13T16:00:23.348Z,0.75
2022-09-13T16:02:51.908Z,0.60
2022-09-13T16:05:20.041Z,0.52
2022-09-13T16:07:47.807Z,0.52
2022-09-13T16:10:18.845Z,0.50
2022-09-13T16:12:46.927Z,0.60
2022-09-13T16:15:16.940Z,0.55
2022-09-13T16:17:45.878Z,0.50
2022-09-13T16:20:14.827Z,0.40
2022-09-13T16:22:42.895Z,0.70
2022-09-13T16:25:12.996Z,0.50
2022-09-13T16:27:40.859Z,0.50
2022-09-13T16:30:11.501Z,0.40
2022-09-13T16:32:41.273Z,0.53
2022-09-13T16:35:09.631Z,0.50
2022-09-13T16:37:37.334Z,0.60
2022-09-13T16:40:05.743Z,0.50
2022-09-13T16:42:34.079Z,0.40
2022-09-13T16:45:01.778Z,0.37
2022-09-13T16:47:29.970Z,0.47
2022-09-13T16:49:59.083Z,0.60
2022-09-13T16:52:26.809Z,0.57
2022-09-13T16:54:54.591Z,0.50
2022-09-13T16:57:22.271Z,0.40
2022-09-13T16:59:52.624Z,0.60
2022-09-13T17:02:20.698Z,0.40
2022-09-13T17:04:48.484Z,0.50
2022-09-13T17:07:17.676Z,0.60
2022-09-13T17:09:45.554Z,0.50
2022-09-13T17:12:14.740Z,0.40
2022-09-13T17:14:45.334Z,0.77
2022-09-13T17:17:13.029Z,0.50
2022-09-13T17:19:40.664Z,0.60
2022-09-13T17:22:09.855Z,0.50
2022-09-13T17:24:39.565Z,0.40
2022-09-13T17:27:08.171Z,0.67
2022-09-13T17:29:36.735Z,0.50
2022-09-13T17:32:06.795Z,0.50
2022-09-13T17:34:34.949Z,0.63
2022-09-13T17:37:03.452Z,0.63
2022-09-13T17:39:32.061Z,0.77
2022-09-13T17:42:01.171Z,0.60
2022-09-13T17:44:28.883Z,0.60
2022-09-13T17:46:56.612Z,0.60
2022-09-13T17:49:24.302Z,0.52
2022-09-13T17:51:51.936Z,0.90
2022-09-13T17:54:19.844Z,0.50
2022-09-13T17:56:47.485Z,0.63
2022-09-13T17:59:18.161Z,0.70
2022-09-13T18:01:49.008Z,0.70
2022-09-13T18:04:18.358Z,0.63
2022-09-13T18:06:46.043Z,0.60
2022-09-13T18:09:15.652Z,0.50
2022-09-13T18:11:44.113Z,0.60
2022-09-13T18:14:13.751Z,0.70
2022-09-13T18:16:43.592Z,0.85
2022-09-13T18:19:12.106Z,0.50
2022-09-13T18:21:39.868Z,0.77
2022-09-13T18:24:07.842Z,0.50
2022-09-13T18:26:36.272Z,0.70
2022-09-13T18:29:05.877Z,0.50
2022-09-13T18:31:35.749Z,0.57
2022-09-13T18:34:06.720Z,0.50
2022-09-13T18:36:35.663Z,0.60
2022-09-13T18:39:04.985Z,0.73
2022-09-13T18:41:34.602Z,0.80
2022-09-13T18:44:04.385Z,0.50
2022-09-13T18:46:34.378Z,0.60
2022-09-13T18:49:04.807Z,0.90
2022-09-13T18:51:34.573Z,0.70
2022-09-13T18:54:04.092Z,0.80
2022-09-13T18:56:33.362Z,0.60
2022-09-13T18:59:03.870Z,1.10
2022-09-13T19:01:34.406Z,0.77
2022-09-13T19:04:07.731Z,0.70
2022-09-13T19:06:37.943Z,0.70
2022-09-13T19:09:08.432Z,0.90
2022-09-13T19:11:48.144Z,0.70
2022-09-13T19:14:18.663Z,0.70
2022-09-13T19:16:47.383Z,0.63
2022-09-13T19:19:16.955Z,0.60
2022-09-13T19:21:45.091Z,0.80
2022-09-13T19:24:18.338Z,0.70
2022-09-13T19:26:48.911Z,0.70
2022-09-13T19:29:19.201Z,1.07
2022-09-13T19:31:49.597Z,0.80
2022-09-13T19:34:20.501Z,0.80
2022-09-13T19:36:50.577Z,0.77
2022-09-13T19:39:18.958Z,0.77
2022-09-13T19:41:46.869Z,0.67
2022-09-13T19:44:15.174Z,0.70
2022-09-13T19:46:43.745Z,0.90
2022-09-13T19:49:14.925Z,0.60
2022-09-13T19:51:50.118Z,0.97
2022-09-13T19:54:20.608Z,0.80
2022-09-13T19:56:48.627Z,0.90
2022-09-13T19:59:19.707Z,0.87
2022-09-13T20:01:48.674Z,1.03
2022-09-13T20:04:18.068Z,0.63
2022-09-13T20:06:49.963Z,0.77
2022-09-13T20:09:19.594Z,1.03
2022-09-13T20:11:48.593Z,0.80
2022-09-13T20:14:19.476Z,0.80
2022-09-13T20:16:47.662Z,0.90
2022-09-13T20:19:39.417Z,1.00
2022-09-13T20:22:08.501Z,1.20
2022-09-13T20:24:36.682Z,0.90
2022-09-13T20:27:04.745Z,0.80
2022-09-13T20:29:32.521Z,0.97
2022-09-13T20:32:02.174Z,0.83
2022-09-13T20:34:29.870Z,0.70
2022-09-13T20:36:57.573Z,0.80
2022-09-13T20:39:26.665Z,1.20
2022-09-13T20:41:54.640Z,0.90
2022-09-13T20:44:22.360Z,0.73
2022-09-13T20:46:50.014Z,1.00
2022-09-13T20:49:17.767Z,0.80
2022-09-13T20:51:46.629Z,0.70
2022-09-13T20:54:14.405Z,0.53
2022-09-13T20:56:43.414Z,0.70
2022-09-13T20:59:11.214Z,0.80
2022-09-13T21:01:39.595Z,0.80
2022-09-13T21:04:07.315Z,0.60
2022-09-13T21:06:39.510Z,0.60
2022-09-13T21:09:06.367Z,1.30
2022-09-13T21:11:38.346Z,0.80
2022-09-13T21:14:09.502Z,0.63
2022-09-13T21:16:39.726Z,0.77
2022-09-13T21:19:08.095Z,0.73
2022-09-13T21:21:38.322Z,0.70
2022-09-13T21:24:09.553Z,0.63
2022-09-13T21:26:39.670Z,0.87
2022-09-13T21:29:09.807Z,1.27
2022-09-13T21:31:37.778Z,0.73
2022-09-13T21:34:07.826Z,0.87
2022-09-13T21:36:37.239Z,0.60
2022-09-13T21:39:05.009Z,1.00
2022-09-13T21:41:33.130Z,0.70
2022-09-13T21:44:00.791Z,0.70
2022-09-13T21:46:31.923Z,0.80
2022-09-13T21:49:02.302Z,0.80
2022-09-13T21:51:33.016Z,0.77
2022-09-13T21:54:02.472Z,0.80
2022-09-13T21:56:32.796Z,0.73
2022-09-13T21:59:02.181Z,0.90
2022-09-13T22:01:33.252Z,1.00
2022-09-13T22:04:02.047Z,1.00
2022-09-13T22:06:33.651Z,0.90
2022-09-13T22:09:03.170Z,0.70
2022-09-13T22:11:33.076Z,0.67
2022-09-13T22:14:02.348Z,0.80
2022-09-13T22:16:33.195Z,0.50
2022-09-13T22:19:08.073Z,0.80
2022-09-13T22:21:38.992Z,0.90
2022-09-13T22:24:07.737Z,0.80
2022-09-13T22:26:38.105Z,0.77
2022-09-13T22:29:06.133Z,0.90
2022-09-13T22:31:37.580Z,0.80
2022-09-13T22:34:06.093Z,0.73
2022-09-13T22:36:34.023Z,0.90
2022-09-13T22:39:01.639Z,0.67
2022-09-13T22:41:31.426Z,0.80
2022-09-13T22:43:59.656Z,1.00
2022-09-13T22:46:29.331Z,0.67
2022-09-13T22:48:58.311Z,0.73
2022-09-13T22:51:26.959Z,0.60
2022-09-13T22:53:56.464Z,0.80
2022-09-13T22:56:26.089Z,0.67
2022-09-13T22:58:55.360Z,0.70
2022-09-13T23:01:23.761Z,0.60
2022-09-13T23:03:52.659Z,0.67
2022-09-13T23:06:23.661Z,0.73
2022-09-13T23:08:54.188Z,0.90
2022-09-13T23:11:24.030Z,0.90
2022-09-13T23:13:53.305Z,0.60
2022-09-13T23:16:23.186Z,0.80
2022-09-13T23:18:51.847Z,0.60
2022-09-13T23:21:21.565Z,0.63
2022-09-13T23:23:49.908Z,0.63
2022-09-13T23:26:19.467Z,0.70
2022-09-13T23:28:50.424Z,0.87
2022-09-13T23:31:20.123Z,0.77
2022-09-13T23:33:51.043Z,0.70
2022-09-13T23:36:22.614Z,0.60
2022-09-13T23:38:52.784Z,0.50
2022-09-13T23:41:21.567Z,0.70
2022-09-13T23:43:49.819Z,1.00
2022-09-13T23:46:18.000Z,0.80
2022-09-13T23:48:45.977Z,0.70
2022-09-13T23:51:16.712Z,0.70
2022-09-13T23:53:46.372Z,0.60
2022-09-13T23:56:14.528Z,0.90
2022-09-13T23:58:42.382Z,0.70
